sensor_id;sensor_type;location;lat;lon;timestamp;P1;durP1;ratioP1;P2;durP2;ratioP2
17850;SDS011;9051;51.548;14.348;2023-01-01T00:01:42;2.57;;;2.10;;
17850;SDS011;9051;51.548;14.348;2023-01-01T00:04:15;2.97;;;2.50;;
17850;SDS011;9051;51.548;14.348;2023-01-01T00:06:48;2.97;;;2.37;;
17850;SDS011;9051;51.548;14.348;2023-01-01T00:09:20;2.90;;;2.30;;
17850;SDS011;9051;51.548;14.348;2023-01-01T00:12:09;3.40;;;2.33;;
17850;SDS011;9051;51.548;14.348;2023-01-01T00:14:41;4.03;;;2.30;;
17850;SDS011;9051;51.548;14.348;2023-01-01T00:17:13;3.80;;;2.20;;
17850;SDS011;9051;51.548;14.348;2023-01-01T00:19:45;4.63;;;2.20;;
17850;SDS011;9051;51.548;14.348;2023-01-01T00:22:18;3.17;;;2.23;;
17850;SDS011;9051;51.548;14.348;2023-01-01T00:24:50;3.80;;;2.37;;
17850;SDS011;9051;51.548;14.348;2023-01-01T00:27:22;3.20;;;2.30;;
17850;SDS011;9051;51.548;14.348;2023-01-01T00:29:54;3.60;;;2.33;;
17850;SDS011;9051;51.548;14.348;2023-01-01T00:32:26;3.57;;;2.77;;
17850;SDS011;9051;51.548;14.348;2023-01-01T00:34:58;3.27;;;2.83;;
17850;SDS011;9051;51.548;14.348;2023-01-01T00:37:32;2.70;;;2.50;;
17850;SDS011;9051;51.548;14.348;2023-01-01T00:40:04;3.43;;;2.53;;
17850;SDS011;9051;51.548;14.348;2023-01-01T00:42:37;3.50;;;2.80;;
17850;SDS011;9051;51.548;14.348;2023-01-01T00:45:10;7.50;;;3.60;;
17850;SDS011;9051;51.548;14.348;2023-01-01T00:47:42;5.13;;;3.20;;
17850;SDS011;9051;51.548;14.348;2023-01-01T00:50:14;3.60;;;2.90;;
17850;SDS011;9051;51.548;14.348;2023-01-01T00:52:48;6.67;;;3.27;;
17850;SDS011;9051;51.548;14.348;2023-01-01T00:55:20;5.23;;;2.70;;
17850;SDS011;9051;51.548;14.348;2023-01-01T00:57:52;4.27;;;3.10;;
17850;SDS011;9051;51.548;14.348;2023-01-01T01:00:24;4.57;;;3.40;;
17850;SDS011;9051;51.548;14.348;2023-01-01T01:02:56;4.23;;;3.07;;
17850;SDS011;9051;51.548;14.348;2023-01-01T01:05:28;4.33;;;3.47;;
17850;SDS011;9051;51.548;14.348;2023-01-01T01:08:02;4.83;;;3.40;;
17850;SDS011;9051;51.548;14.348;2023-01-01T01:10:34;4.50;;;3.40;;
17850;SDS011;9051;51.548;14.348;2023-01-01T01:13:06;4.93;;;3.40;;
17850;SDS011;9051;51.548;14.348;2023-01-01T01:15:38;4.57;;;3.27;;
17850;SDS011;9051;51.548;14.348;2023-01-01T01:18:10;3.90;;;3.33;;
17850;SDS011;9051;51.548;14.348;2023-01-01T01:20:48;6.30;;;3.77;;
17850;SDS011;9051;51.548;14.348;2023-01-01T01:23:23;4.90;;;3.10;;
17850;SDS011;9051;51.548;14.348;2023-01-01T01:26:04;7.27;;;3.63;;
17850;SDS011;9051;51.548;14.348;2023-01-01T01:28:37;3.70;;;3.20;;
17850;SDS011;9051;51.548;14.348;2023-01-01T01:31:09;3.80;;;3.23;;
17850;SDS011;9051;51.548;14.348;2023-01-01T01:33:42;6.70;;;3.60;;
17850;SDS011;9051;51.548;14.348;2023-01-01T01:36:15;5.50;;;3.53;;
17850;SDS011;9051;51.548;14.348;2023-01-01T01:38:49;5.70;;;3.47;;
17850;SDS011;9051;51.548;14.348;2023-01-01T01:41:22;5.67;;;3.57;;
17850;SDS011;9051;51.548;14.348;2023-01-01T01:43:56;4.03;;;3.60;;
17850;SDS011;9051;51.548;14.348;2023-01-01T01:46:31;5.07;;;3.30;;
17850;SDS011;9051;51.548;14.348;2023-01-01T01:49:08;5.27;;;3.60;;
17850;SDS011;9051;51.548;14.348;2023-01-01T01:51:45;4.47;;;3.23;;
17850;SDS011;9051;51.548;14.348;2023-01-01T01:54:19;3.90;;;3.03;;
17850;SDS011;9051;51.548;14.348;2023-01-01T01:56:55;5.03;;;3.43;;
17850;SDS011;9051;51.548;14.348;2023-01-01T01:59:32;7.47;;;3.87;;
17850;SDS011;9051;51.548;14.348;2023-01-01T02:02:09;5.60;;;3.60;;
17850;SDS011;9051;51.548;14.348;2023-01-01T02:04:46;6.40;;;4.10;;
17850;SDS011;9051;51.548;14.348;2023-01-01T02:07:18;5.40;;;3.57;;
17850;SDS011;9051;51.548;14.348;2023-01-01T02:09:53;4.73;;;3.17;;
17850;SDS011;9051;51.548;14.348;2023-01-01T02:12:26;6.40;;;3.33;;
17850;SDS011;9051;51.548;14.348;2023-01-01T02:14:58;5.43;;;3.57;;
17850;SDS011;9051;51.548;14.348;2023-01-01T02:17:32;5.87;;;3.47;;
17850;SDS011;9051;51.548;14.348;2023-01-01T02:20:14;6.60;;;3.33;;
17850;SDS011;9051;51.548;14.348;2023-01-01T02:23:14;6.00;;;4.03;;
17850;SDS011;9051;51.548;14.348;2023-01-01T02:26:20;7.37;;;3.60;;
17850;SDS011;9051;51.548;14.348;2023-01-01T02:29:18;4.50;;;3.30;;
17850;SDS011;9051;51.548;14.348;2023-01-01T02:32:04;7.80;;;3.70;;
17850;SDS011;9051;51.548;14.348;2023-01-01T02:34:40;5.57;;;3.97;;
17850;SDS011;9051;51.548;14.348;2023-01-01T02:37:16;4.90;;;3.80;;
17850;SDS011;9051;51.548;14.348;2023-01-01T02:39:50;4.73;;;3.50;;
17850;SDS011;9051;51.548;14.348;2023-01-01T02:42:26;5.17;;;4.03;;
17850;SDS011;9051;51.548;14.348;2023-01-01T02:45:01;5.93;;;4.17;;
17850;SDS011;9051;51.548;14.348;2023-01-01T02:47:34;6.20;;;3.70;;
17850;SDS011;9051;51.548;14.348;2023-01-01T02:50:09;6.60;;;3.83;;
17850;SDS011;9051;51.548;14.348;2023-01-01T02:52:48;6.10;;;4.30;;
17850;SDS011;9051;51.548;14.348;2023-01-01T02:55:50;6.73;;;4.70;;
17850;SDS011;9051;51.548;14.348;2023-01-01T02:58:31;6.63;;;4.00;;
17850;SDS011;9051;51.548;14.348;2023-01-01T03:01:26;5.73;;;4.50;;
17850;SDS011;9051;51.548;14.348;2023-01-01T03:04:05;8.67;;;4.87;;
17850;SDS011;9051;51.548;14.348;2023-01-01T03:06:43;7.53;;;4.70;;
17850;SDS011;9051;51.548;14.348;2023-01-01T03:09:25;5.33;;;3.90;;
17850;SDS011;9051;51.548;14.348;2023-01-01T03:12:04;5.67;;;3.90;;
17850;SDS011;9051;51.548;14.348;2023-01-01T03:14:45;5.40;;;3.93;;
17850;SDS011;9051;51.548;14.348;2023-01-01T03:17:26;6.70;;;4.10;;
17850;SDS011;9051;51.548;14.348;2023-01-01T03:20:05;6.63;;;4.10;;
17850;SDS011;9051;51.548;14.348;2023-01-01T03:22:40;6.70;;;4.13;;
17850;SDS011;9051;51.548;14.348;2023-01-01T03:25:15;5.47;;;3.57;;
17850;SDS011;9051;51.548;14.348;2023-01-01T03:27:51;7.30;;;3.77;;
17850;SDS011;9051;51.548;14.348;2023-01-01T03:30:26;5.10;;;3.50;;
17850;SDS011;9051;51.548;14.348;2023-01-01T03:33:03;7.23;;;3.63;;
17850;SDS011;9051;51.548;14.348;2023-01-01T03:35:39;6.03;;;3.33;;
17850;SDS011;9051;51.548;14.348;2023-01-01T03:38:25;5.47;;;3.30;;
17850;SDS011;9051;51.548;14.348;2023-01-01T03:41:02;6.87;;;3.43;;
17850;SDS011;9051;51.548;14.348;2023-01-01T03:43:38;4.87;;;3.40;;
17850;SDS011;9051;51.548;14.348;2023-01-01T03:46:15;5.10;;;3.30;;
17850;SDS011;9051;51.548;14.348;2023-01-01T03:48:54;4.60;;;3.37;;
17850;SDS011;9051;51.548;14.348;2023-01-01T03:51:31;5.47;;;3.17;;
17850;SDS011;9051;51.548;14.348;2023-01-01T03:54:18;4.53;;;2.90;;
17850;SDS011;9051;51.548;14.348;2023-01-01T03:56:58;4.20;;;2.90;;
17850;SDS011;9051;51.548;14.348;2023-01-01T03:59:38;4.73;;;2.80;;
17850;SDS011;9051;51.548;14.348;2023-01-01T04:02:14;8.43;;;3.20;;
17850;SDS011;9051;51.548;14.348;2023-01-01T04:04:51;5.03;;;2.80;;
17850;SDS011;9051;51.548;14.348;2023-01-01T04:07:24;3.70;;;2.57;;
17850;SDS011;9051;51.548;14.348;2023-01-01T04:09:57;2.87;;;2.63;;
17850;SDS011;9051;51.548;14.348;2023-01-01T04:12:46;4.93;;;2.73;;
17850;SDS011;9051;51.548;14.348;2023-01-01T04:15:20;3.07;;;2.50;;
17850;SDS011;9051;51.548;14.348;2023-01-01T04:17:55;5.30;;;2.93;;
17850;SDS011;9051;51.548;14.348;2023-01-01T04:20:28;5.30;;;2.60;;
17850;SDS011;9051;51.548;14.348;2023-01-01T04:23:01;6.53;;;2.80;;
17850;SDS011;9051;51.548;14.348;2023-01-01T04:25:34;5.60;;;2.57;;
17850;SDS011;9051;51.548;14.348;2023-01-01T04:28:06;3.50;;;2.67;;
17850;SDS011;9051;51.548;14.348;2023-01-01T04:30:38;4.93;;;2.97;;
17850;SDS011;9051;51.548;14.348;2023-01-01T04:33:10;5.10;;;2.60;;
17850;SDS011;9051;51.548;14.348;2023-01-01T04:35:43;4.17;;;2.80;;
17850;SDS011;9051;51.548;14.348;2023-01-01T04:38:15;8.97;;;3.07;;
17850;SDS011;9051;51.548;14.348;2023-01-01T04:40:56;7.17;;;3.03;;
17850;SDS011;9051;51.548;14.348;2023-01-01T04:43:28;4.30;;;2.20;;
17850;SDS011;9051;51.548;14.348;2023-01-01T04:46:01;4.40;;;2.50;;
17850;SDS011;9051;51.548;14.348;2023-01-01T04:48:34;5.80;;;2.60;;
17850;SDS011;9051;51.548;14.348;2023-01-01T04:51:09;5.83;;;2.20;;
17850;SDS011;9051;51.548;14.348;2023-01-01T04:53:42;5.87;;;2.50;;
17850;SDS011;9051;51.548;14.348;2023-01-01T04:56:14;4.83;;;2.30;;
17850;SDS011;9051;51.548;14.348;2023-01-01T04:58:48;3.90;;;2.53;;
17850;SDS011;9051;51.548;14.348;2023-01-01T05:01:21;6.10;;;2.63;;
17850;SDS011;9051;51.548;14.348;2023-01-01T05:03:55;5.30;;;2.70;;
17850;SDS011;9051;51.548;14.348;2023-01-01T05:06:32;4.07;;;2.53;;
17850;SDS011;9051;51.548;14.348;2023-01-01T05:09:04;4.37;;;2.63;;
17850;SDS011;9051;51.548;14.348;2023-01-01T05:11:36;7.57;;;2.47;;
17850;SDS011;9051;51.548;14.348;2023-01-01T05:14:08;5.23;;;2.40;;
17850;SDS011;9051;51.548;14.348;2023-01-01T05:16:40;3.80;;;2.60;;
17850;SDS011;9051;51.548;14.348;2023-01-01T05:19:12;4.13;;;2.10;;
17850;SDS011;9051;51.548;14.348;2023-01-01T05:21:45;5.20;;;2.37;;
17850;SDS011;9051;51.548;14.348;2023-01-01T05:24:17;3.50;;;2.13;;
17850;SDS011;9051;51.548;14.348;2023-01-01T05:26:49;7.77;;;2.40;;
17850;SDS011;9051;51.548;14.348;2023-01-01T05:29:22;6.93;;;2.87;;
17850;SDS011;9051;51.548;14.348;2023-01-01T05:31:54;6.70;;;2.33;;
17850;SDS011;9051;51.548;14.348;2023-01-01T05:34:26;3.70;;;2.43;;
17850;SDS011;9051;51.548;14.348;2023-01-01T05:36:59;6.33;;;2.40;;
17850;SDS011;9051;51.548;14.348;2023-01-01T05:39:31;5.90;;;2.10;;
17850;SDS011;9051;51.548;14.348;2023-01-01T05:42:03;6.00;;;2.30;;
17850;SDS011;9051;51.548;14.348;2023-01-01T05:44:35;5.53;;;2.20;;
17850;SDS011;9051;51.548;14.348;2023-01-01T05:47:07;7.20;;;2.30;;
17850;SDS011;9051;51.548;14.348;2023-01-01T05:49:39;4.87;;;2.30;;
17850;SDS011;9051;51.548;14.348;2023-01-01T05:52:12;6.73;;;2.40;;
17850;SDS011;9051;51.548;14.348;2023-01-01T05:54:44;5.27;;;2.20;;
17850;SDS011;9051;51.548;14.348;2023-01-01T05:57:16;4.13;;;2.00;;
17850;SDS011;9051;51.548;14.348;2023-01-01T05:59:47;7.13;;;2.43;;
17850;SDS011;9051;51.548;14.348;2023-01-01T06:02:21;5.47;;;2.33;;
17850;SDS011;9051;51.548;14.348;2023-01-01T06:04:53;3.20;;;2.43;;
17850;SDS011;9051;51.548;14.348;2023-01-01T06:07:26;3.77;;;2.20;;
17850;SDS011;9051;51.548;14.348;2023-01-01T06:09:58;8.50;;;2.53;;
17850;SDS011;9051;51.548;14.348;2023-01-01T06:12:30;3.73;;;2.30;;
17850;SDS011;9051;51.548;14.348;2023-01-01T06:15:02;5.40;;;2.50;;
17850;SDS011;9051;51.548;14.348;2023-01-01T06:17:35;8.67;;;2.67;;
17850;SDS011;9051;51.548;14.348;2023-01-01T06:20:08;3.77;;;2.37;;
17850;SDS011;9051;51.548;14.348;2023-01-01T06:22:42;5.23;;;2.37;;
17850;SDS011;9051;51.548;14.348;2023-01-01T06:25:14;4.87;;;2.60;;
17850;SDS011;9051;51.548;14.348;2023-01-01T06:27:46;3.17;;;2.13;;
17850;SDS011;9051;51.548;14.348;2023-01-01T06:30:18;5.83;;;2.30;;
17850;SDS011;9051;51.548;14.348;2023-01-01T06:32:50;5.77;;;2.30;;
17850;SDS011;9051;51.548;14.348;2023-01-01T06:35:23;4.63;;;2.40;;
17850;SDS011;9051;51.548;14.348;2023-01-01T06:37:58;5.13;;;2.33;;
17850;SDS011;9051;51.548;14.348;2023-01-01T06:40:30;3.53;;;2.17;;
17850;SDS011;9051;51.548;14.348;2023-01-01T06:43:02;7.13;;;2.23;;
17850;SDS011;9051;51.548;14.348;2023-01-01T06:45:34;3.23;;;2.23;;
17850;SDS011;9051;51.548;14.348;2023-01-01T06:48:06;4.73;;;2.20;;
17850;SDS011;9051;51.548;14.348;2023-01-01T06:50:38;5.47;;;2.30;;
17850;SDS011;9051;51.548;14.348;2023-01-01T06:53:11;4.13;;;2.30;;
17850;SDS011;9051;51.548;14.348;2023-01-01T06:55:46;3.00;;;2.07;;
17850;SDS011;9051;51.548;14.348;2023-01-01T06:58:18;3.43;;;2.17;;
17850;SDS011;9051;51.548;14.348;2023-01-01T07:00:50;2.83;;;2.07;;
17850;SDS011;9051;51.548;14.348;2023-01-01T07:03:22;2.87;;;2.40;;
17850;SDS011;9051;51.548;14.348;2023-01-01T07:05:54;5.40;;;2.20;;
17850;SDS011;9051;51.548;14.348;2023-01-01T07:08:28;4.93;;;2.17;;
17850;SDS011;9051;51.548;14.348;2023-01-01T07:11:00;3.20;;;2.00;;
17850;SDS011;9051;51.548;14.348;2023-01-01T07:13:32;3.20;;;2.20;;
17850;SDS011;9051;51.548;14.348;2023-01-01T07:16:04;3.50;;;2.10;;
17850;SDS011;9051;51.548;14.348;2023-01-01T07:18:37;3.97;;;2.33;;
17850;SDS011;9051;51.548;14.348;2023-01-01T07:21:20;5.30;;;2.20;;
17850;SDS011;9051;51.548;14.348;2023-01-01T07:23:59;5.13;;;2.30;;
17850;SDS011;9051;51.548;14.348;2023-01-01T07:26:32;5.13;;;2.40;;
17850;SDS011;9051;51.548;14.348;2023-01-01T07:29:04;5.37;;;2.33;;
17850;SDS011;9051;51.548;14.348;2023-01-01T07:31:38;3.97;;;2.50;;
17850;SDS011;9051;51.548;14.348;2023-01-01T07:34:12;3.23;;;2.30;;
17850;SDS011;9051;51.548;14.348;2023-01-01T07:36:45;4.17;;;2.50;;
17850;SDS011;9051;51.548;14.348;2023-01-01T07:39:18;4.53;;;2.17;;
17850;SDS011;9051;51.548;14.348;2023-01-01T07:41:50;4.63;;;2.57;;
17850;SDS011;9051;51.548;14.348;2023-01-01T07:44:22;4.87;;;2.13;;
17850;SDS011;9051;51.548;14.348;2023-01-01T07:47:00;3.90;;;2.53;;
17850;SDS011;9051;51.548;14.348;2023-01-01T07:49:32;4.10;;;2.33;;
17850;SDS011;9051;51.548;14.348;2023-01-01T07:52:04;3.97;;;2.33;;
17850;SDS011;9051;51.548;14.348;2023-01-01T07:54:37;3.27;;;2.17;;
17850;SDS011;9051;51.548;14.348;2023-01-01T07:57:09;4.90;;;2.40;;
17850;SDS011;9051;51.548;14.348;2023-01-01T07:59:41;3.40;;;2.30;;
17850;SDS011;9051;51.548;14.348;2023-01-01T08:02:13;3.57;;;2.40;;
17850;SDS011;9051;51.548;14.348;2023-01-01T08:04:45;6.87;;;2.70;;
17850;SDS011;9051;51.548;14.348;2023-01-01T08:07:17;4.47;;;2.60;;
17850;SDS011;9051;51.548;14.348;2023-01-01T08:09:50;3.53;;;2.33;;
17850;SDS011;9051;51.548;14.348;2023-01-01T08:12:22;3.40;;;2.47;;
17850;SDS011;9051;51.548;14.348;2023-01-01T08:14:54;4.87;;;2.70;;
17850;SDS011;9051;51.548;14.348;2023-01-01T08:17:26;4.83;;;2.70;;
17850;SDS011;9051;51.548;14.348;2023-01-01T08:19:58;3.33;;;2.53;;
17850;SDS011;9051;51.548;14.348;2023-01-01T08:22:30;4.23;;;2.60;;
17850;SDS011;9051;51.548;14.348;2023-01-01T08:25:04;3.37;;;2.50;;
17850;SDS011;9051;51.548;14.348;2023-01-01T08:27:36;5.83;;;2.60;;
17850;SDS011;9051;51.548;14.348;2023-01-01T08:30:09;3.40;;;2.53;;
17850;SDS011;9051;51.548;14.348;2023-01-01T08:32:42;5.40;;;2.97;;
17850;SDS011;9051;51.548;14.348;2023-01-01T08:35:14;5.10;;;2.93;;
17850;SDS011;9051;51.548;14.348;2023-01-01T08:37:46;3.47;;;2.80;;
17850;SDS011;9051;51.548;14.348;2023-01-01T08:40:19;3.87;;;2.70;;
17850;SDS011;9051;51.548;14.348;2023-01-01T08:42:51;5.30;;;2.80;;
17850;SDS011;9051;51.548;14.348;2023-01-01T08:45:23;4.73;;;3.00;;
17850;SDS011;9051;51.548;14.348;2023-01-01T08:47:55;4.97;;;2.97;;
17850;SDS011;9051;51.548;14.348;2023-01-01T08:50:27;5.03;;;3.33;;
17850;SDS011;9051;51.548;14.348;2023-01-01T08:52:59;4.87;;;3.00;;
17850;SDS011;9051;51.548;14.348;2023-01-01T08:55:32;4.90;;;3.07;;
17850;SDS011;9051;51.548;14.348;2023-01-01T08:58:04;4.77;;;2.97;;
17850;SDS011;9051;51.548;14.348;2023-01-01T09:00:37;6.50;;;3.60;;
17850;SDS011;9051;51.548;14.348;2023-01-01T09:03:09;5.27;;;3.20;;
17850;SDS011;9051;51.548;14.348;2023-01-01T09:05:41;4.03;;;3.30;;
17850;SDS011;9051;51.548;14.348;2023-01-01T09:08:15;5.33;;;3.50;;
17850;SDS011;9051;51.548;14.348;2023-01-01T09:10:49;4.60;;;3.60;;
17850;SDS011;9051;51.548;14.348;2023-01-01T09:13:22;5.77;;;3.50;;
17850;SDS011;9051;51.548;14.348;2023-01-01T09:15:54;6.60;;;3.67;;
17850;SDS011;9051;51.548;14.348;2023-01-01T09:18:26;4.57;;;3.67;;
17850;SDS011;9051;51.548;14.348;2023-01-01T09:20:58;5.80;;;3.97;;
17850;SDS011;9051;51.548;14.348;2023-01-01T09:23:30;8.50;;;5.63;;
17850;SDS011;9051;51.548;14.348;2023-01-01T09:26:03;9.43;;;5.63;;
17850;SDS011;9051;51.548;14.348;2023-01-01T09:28:36;5.70;;;4.77;;
17850;SDS011;9051;51.548;14.348;2023-01-01T09:31:08;10.30;;;6.23;;
17850;SDS011;9051;51.548;14.348;2023-01-01T09:33:40;10.87;;;6.90;;
17850;SDS011;9051;51.548;14.348;2023-01-01T09:36:13;5.27;;;3.90;;
17850;SDS011;9051;51.548;14.348;2023-01-01T09:38:47;4.63;;;3.87;;
17850;SDS011;9051;51.548;14.348;2023-01-01T09:41:22;5.87;;;3.87;;
17850;SDS011;9051;51.548;14.348;2023-01-01T09:44:01;4.80;;;3.70;;
17850;SDS011;9051;51.548;14.348;2023-01-01T09:46:39;5.93;;;3.77;;
17850;SDS011;9051;51.548;14.348;2023-01-01T09:49:13;5.87;;;4.13;;
17850;SDS011;9051;51.548;14.348;2023-01-01T09:51:50;7.67;;;3.87;;
17850;SDS011;9051;51.548;14.348;2023-01-01T09:54:28;6.07;;;4.70;;
17850;SDS011;9051;51.548;14.348;2023-01-01T09:57:04;7.03;;;4.93;;
17850;SDS011;9051;51.548;14.348;2023-01-01T09:59:41;5.90;;;4.77;;
17850;SDS011;9051;51.548;14.348;2023-01-01T10:02:16;6.77;;;4.20;;
17850;SDS011;9051;51.548;14.348;2023-01-01T10:05:04;7.80;;;4.47;;
17850;SDS011;9051;51.548;14.348;2023-01-01T10:07:47;7.07;;;4.13;;
17850;SDS011;9051;51.548;14.348;2023-01-01T10:10:28;9.10;;;4.43;;
17850;SDS011;9051;51.548;14.348;2023-01-01T10:13:11;7.67;;;4.70;;
17850;SDS011;9051;51.548;14.348;2023-01-01T10:15:54;7.97;;;4.70;;
17850;SDS011;9051;51.548;14.348;2023-01-01T10:18:29;9.27;;;4.80;;
17850;SDS011;9051;51.548;14.348;2023-01-01T10:21:06;8.27;;;4.60;;
17850;SDS011;9051;51.548;14.348;2023-01-01T10:23:43;6.53;;;4.00;;
17850;SDS011;9051;51.548;14.348;2023-01-01T10:26:21;7.40;;;4.93;;
17850;SDS011;9051;51.548;14.348;2023-01-01T10:28:58;5.97;;;4.23;;
17850;SDS011;9051;51.548;14.348;2023-01-01T10:31:34;7.73;;;4.63;;
17850;SDS011;9051;51.548;14.348;2023-01-01T10:34:11;6.50;;;4.20;;
17850;SDS011;9051;51.548;14.348;2023-01-01T10:36:46;4.97;;;3.67;;
17850;SDS011;9051;51.548;14.348;2023-01-01T10:39:22;6.93;;;3.60;;
17850;SDS011;9051;51.548;14.348;2023-01-01T10:41:55;6.17;;;3.50;;
17850;SDS011;9051;51.548;14.348;2023-01-01T10:44:30;5.93;;;3.63;;
17850;SDS011;9051;51.548;14.348;2023-01-01T10:47:04;4.30;;;3.13;;
17850;SDS011;9051;51.548;14.348;2023-01-01T10:49:54;5.90;;;3.03;;
17850;SDS011;9051;51.548;14.348;2023-01-01T10:52:29;4.60;;;3.63;;
17850;SDS011;9051;51.548;14.348;2023-01-01T10:55:05;6.00;;;3.80;;
17850;SDS011;9051;51.548;14.348;2023-01-01T10:57:39;5.23;;;3.23;;
17850;SDS011;9051;51.548;14.348;2023-01-01T11:00:20;6.17;;;3.40;;
17850;SDS011;9051;51.548;14.348;2023-01-01T11:03:05;6.27;;;3.50;;
17850;SDS011;9051;51.548;14.348;2023-01-01T11:08:47;5.37;;;3.13;;
17850;SDS011;9051;51.548;14.348;2023-01-01T11:11:21;5.03;;;3.10;;
17850;SDS011;9051;51.548;14.348;2023-01-01T11:13:57;5.63;;;3.10;;
17850;SDS011;9051;51.548;14.348;2023-01-01T11:16:34;5.93;;;3.43;;
17850;SDS011;9051;51.548;14.348;2023-01-01T11:19:11;4.90;;;3.10;;
17850;SDS011;9051;51.548;14.348;2023-01-01T11:21:51;5.93;;;3.27;;
17850;SDS011;9051;51.548;14.348;2023-01-01T11:24:29;7.90;;;3.60;;
17850;SDS011;9051;51.548;14.348;2023-01-01T11:27:12;4.23;;;3.13;;
17850;SDS011;9051;51.548;14.348;2023-01-01T11:30:09;5.87;;;3.40;;
17850;SDS011;9051;51.548;14.348;2023-01-01T11:32:52;6.93;;;3.60;;
17850;SDS011;9051;51.548;14.348;2023-01-01T11:35:28;5.70;;;3.23;;
17850;SDS011;9051;51.548;14.348;2023-01-01T11:38:18;5.90;;;3.10;;
17850;SDS011;9051;51.548;14.348;2023-01-01T11:40:53;5.63;;;3.47;;
17850;SDS011;9051;51.548;14.348;2023-01-01T11:43:26;5.30;;;3.17;;
17850;SDS011;9051;51.548;14.348;2023-01-01T11:46:04;5.57;;;3.20;;
17850;SDS011;9051;51.548;14.348;2023-01-01T11:48:41;6.47;;;3.40;;
17850;SDS011;9051;51.548;14.348;2023-01-01T11:51:26;7.97;;;3.57;;
17850;SDS011;9051;51.548;14.348;2023-01-01T11:54:07;6.53;;;3.43;;
17850;SDS011;9051;51.548;14.348;2023-01-01T11:56:57;6.90;;;3.63;;
17850;SDS011;9051;51.548;14.348;2023-01-01T11:59:38;4.77;;;3.30;;
17850;SDS011;9051;51.548;14.348;2023-01-01T12:02:17;7.07;;;3.40;;
17850;SDS011;9051;51.548;14.348;2023-01-01T12:04:58;4.73;;;3.20;;
17850;SDS011;9051;51.548;14.348;2023-01-01T12:07:48;8.97;;;3.60;;
17850;SDS011;9051;51.548;14.348;2023-01-01T12:10:22;7.70;;;3.27;;
17850;SDS011;9051;51.548;14.348;2023-01-01T12:12:57;5.40;;;3.13;;
17850;SDS011;9051;51.548;14.348;2023-01-01T12:15:34;7.00;;;3.30;;
17850;SDS011;9051;51.548;14.348;2023-01-01T12:18:10;4.43;;;3.07;;
17850;SDS011;9051;51.548;14.348;2023-01-01T12:20:48;7.23;;;3.20;;
17850;SDS011;9051;51.548;14.348;2023-01-01T12:23:25;7.10;;;3.10;;
17850;SDS011;9051;51.548;14.348;2023-01-01T12:25:59;6.50;;;3.17;;
17850;SDS011;9051;51.548;14.348;2023-01-01T12:28:41;7.50;;;3.23;;
17850;SDS011;9051;51.548;14.348;2023-01-01T12:31:24;6.33;;;3.80;;
17850;SDS011;9051;51.548;14.348;2023-01-01T12:34:06;6.70;;;3.53;;
17850;SDS011;9051;51.548;14.348;2023-01-01T12:36:48;6.70;;;3.30;;
17850;SDS011;9051;51.548;14.348;2023-01-01T12:39:40;5.60;;;3.20;;
17850;SDS011;9051;51.548;14.348;2023-01-01T12:42:31;7.77;;;3.27;;
17850;SDS011;9051;51.548;14.348;2023-01-01T12:45:22;6.93;;;2.93;;
17850;SDS011;9051;51.548;14.348;2023-01-01T12:48:07;3.77;;;2.73;;
17850;SDS011;9051;51.548;14.348;2023-01-01T12:50:58;4.87;;;3.00;;
17850;SDS011;9051;51.548;14.348;2023-01-01T12:53:39;6.80;;;3.37;;
17850;SDS011;9051;51.548;14.348;2023-01-01T12:56:20;6.80;;;3.60;;
17850;SDS011;9051;51.548;14.348;2023-01-01T12:58:57;10.70;;;3.77;;
17850;SDS011;9051;51.548;14.348;2023-01-01T13:01:32;7.23;;;3.10;;
17850;SDS011;9051;51.548;14.348;2023-01-01T13:04:06;7.73;;;3.50;;
17850;SDS011;9051;51.548;14.348;2023-01-01T13:06:43;6.30;;;3.33;;
17850;SDS011;9051;51.548;14.348;2023-01-01T13:09:20;10.20;;;3.53;;
17850;SDS011;9051;51.548;14.348;2023-01-01T13:11:55;6.10;;;3.00;;
17850;SDS011;9051;51.548;14.348;2023-01-01T13:14:29;5.40;;;3.33;;
17850;SDS011;9051;51.548;14.348;2023-01-01T13:17:16;5.00;;;3.30;;
17850;SDS011;9051;51.548;14.348;2023-01-01T13:19:51;8.20;;;3.30;;
17850;SDS011;9051;51.548;14.348;2023-01-01T13:22:38;5.73;;;2.97;;
17850;SDS011;9051;51.548;14.348;2023-01-01T13:25:21;6.53;;;3.23;;
17850;SDS011;9051;51.548;14.348;2023-01-01T13:28:01;9.67;;;3.60;;
17850;SDS011;9051;51.548;14.348;2023-01-01T13:30:47;6.17;;;3.13;;
17850;SDS011;9051;51.548;14.348;2023-01-01T13:33:21;8.87;;;3.50;;
17850;SDS011;9051;51.548;14.348;2023-01-01T13:39:01;6.50;;;2.90;;
17850;SDS011;9051;51.548;14.348;2023-01-01T13:41:39;5.67;;;2.80;;
17850;SDS011;9051;51.548;14.348;2023-01-01T13:44:15;9.93;;;2.73;;
17850;SDS011;9051;51.548;14.348;2023-01-01T13:47:02;6.27;;;2.70;;
17850;SDS011;9051;51.548;14.348;2023-01-01T13:49:52;7.03;;;2.87;;
17850;SDS011;9051;51.548;14.348;2023-01-01T13:52:39;6.80;;;2.43;;
17850;SDS011;9051;51.548;14.348;2023-01-01T13:58:42;6.43;;;2.93;;
17850;SDS011;9051;51.548;14.348;2023-01-01T14:01:33;6.83;;;2.77;;
17850;SDS011;9051;51.548;14.348;2023-01-01T14:04:13;8.47;;;3.00;;
17850;SDS011;9051;51.548;14.348;2023-01-01T14:06:57;6.87;;;2.57;;
17850;SDS011;9051;51.548;14.348;2023-01-01T14:09:33;6.17;;;2.60;;
17850;SDS011;9051;51.548;14.348;2023-01-01T14:12:09;5.17;;;2.70;;
17850;SDS011;9051;51.548;14.348;2023-01-01T14:14:48;4.83;;;2.53;;
17850;SDS011;9051;51.548;14.348;2023-01-01T14:17:20;4.47;;;2.77;;
17850;SDS011;9051;51.548;14.348;2023-01-01T14:19:52;6.50;;;2.70;;
17850;SDS011;9051;51.548;14.348;2023-01-01T14:22:24;6.60;;;3.00;;
17850;SDS011;9051;51.548;14.348;2023-01-01T14:24:57;5.53;;;2.80;;
17850;SDS011;9051;51.548;14.348;2023-01-01T14:27:29;4.97;;;2.50;;
17850;SDS011;9051;51.548;14.348;2023-01-01T14:30:02;6.23;;;2.97;;
17850;SDS011;9051;51.548;14.348;2023-01-01T14:32:36;4.43;;;2.53;;
17850;SDS011;9051;51.548;14.348;2023-01-01T14:35:12;12.50;;;6.17;;
17850;SDS011;9051;51.548;14.348;2023-01-01T14:37:46;7.93;;;3.83;;
17850;SDS011;9051;51.548;14.348;2023-01-01T14:40:19;6.20;;;3.47;;
17850;SDS011;9051;51.548;14.348;2023-01-01T14:42:57;11.80;;;5.40;;
17850;SDS011;9051;51.548;14.348;2023-01-01T14:45:35;8.17;;;3.83;;
17850;SDS011;9051;51.548;14.348;2023-01-01T14:48:10;5.33;;;3.17;;
17850;SDS011;9051;51.548;14.348;2023-01-01T14:50:49;10.23;;;2.90;;
17850;SDS011;9051;51.548;14.348;2023-01-01T14:53:24;4.40;;;2.60;;
17850;SDS011;9051;51.548;14.348;2023-01-01T14:56:00;6.27;;;3.13;;
17850;SDS011;9051;51.548;14.348;2023-01-01T14:58:38;9.50;;;2.77;;
17850;SDS011;9051;51.548;14.348;2023-01-01T15:01:16;6.73;;;3.00;;
17850;SDS011;9051;51.548;14.348;2023-01-01T15:03:56;9.17;;;3.00;;
17850;SDS011;9051;51.548;14.348;2023-01-01T15:06:30;8.47;;;3.10;;
17850;SDS011;9051;51.548;14.348;2023-01-01T15:09:02;6.43;;;2.83;;
17850;SDS011;9051;51.548;14.348;2023-01-01T15:11:35;8.43;;;4.53;;
17850;SDS011;9051;51.548;14.348;2023-01-01T15:17:03;6.63;;;3.13;;
17850;SDS011;9051;51.548;14.348;2023-01-01T15:19:37;5.60;;;3.53;;
17850;SDS011;9051;51.548;14.348;2023-01-01T15:22:13;6.67;;;4.90;;
17850;SDS011;9051;51.548;14.348;2023-01-01T15:24:53;6.73;;;3.03;;
17850;SDS011;9051;51.548;14.348;2023-01-01T15:27:26;8.37;;;3.10;;
17850;SDS011;9051;51.548;14.348;2023-01-01T15:30:00;7.77;;;2.47;;
17850;SDS011;9051;51.548;14.348;2023-01-01T15:32:35;5.43;;;2.70;;
17850;SDS011;9051;51.548;14.348;2023-01-01T15:35:17;6.40;;;2.90;;
17850;SDS011;9051;51.548;14.348;2023-01-01T15:37:51;7.27;;;2.93;;
17850;SDS011;9051;51.548;14.348;2023-01-01T15:40:32;5.67;;;2.60;;
17850;SDS011;9051;51.548;14.348;2023-01-01T15:45:57;7.90;;;3.23;;
17850;SDS011;9051;51.548;14.348;2023-01-01T15:48:32;7.70;;;2.77;;
17850;SDS011;9051;51.548;14.348;2023-01-01T15:51:10;4.23;;;2.50;;
17850;SDS011;9051;51.548;14.348;2023-01-01T15:53:46;5.43;;;2.13;;
17850;SDS011;9051;51.548;14.348;2023-01-01T15:56:22;9.27;;;3.20;;